sensor_id;sensor_type;location;lat;lon;timestamp;P1;durP1;ratioP1;P2;durP2;ratioP2
16512;SDS011;8369;48.030;11.598;2024-03-25T00:02:01;1.37;;;1.20;;
16512;SDS011;8369;48.030;11.598;2024-03-25T00:04:26;2.70;;;1.40;;
16512;SDS011;8369;48.030;11.598;2024-03-25T00:06:52;2.17;;;1.47;;
16512;SDS011;8369;48.030;11.598;2024-03-25T00:09:18;2.70;;;1.33;;
16512;SDS011;8369;48.030;11.598;2024-03-25T00:11:45;1.50;;;1.30;;
16512;SDS011;8369;48.030;11.598;2024-03-25T00:14:11;5.97;;;1.87;;
16512;SDS011;8369;48.030;11.598;2024-03-25T00:16:37;3.47;;;1.77;;
16512;SDS011;8369;48.030;11.598;2024-03-25T00:19:02;2.87;;;1.43;;
16512;SDS011;8369;48.030;11.598;2024-03-25T00:21:29;2.70;;;1.60;;
16512;SDS011;8369;48.030;11.598;2024-03-25T00:23:54;1.80;;;1.50;;
16512;SDS011;8369;48.030;11.598;2024-03-25T00:26:23;1.20;;;1.10;;
16512;SDS011;8369;48.030;11.598;2024-03-25T00:28:49;2.93;;;1.50;;
16512;SDS011;8369;48.030;11.598;2024-03-25T00:31:14;1.70;;;1.50;;
16512;SDS011;8369;48.030;11.598;2024-03-25T00:33:40;5.80;;;1.80;;
16512;SDS011;8369;48.030;11.598;2024-03-25T00:36:06;6.57;;;1.87;;
16512;SDS011;8369;48.030;11.598;2024-03-25T00:38:32;3.33;;;1.60;;
16512;SDS011;8369;48.030;11.598;2024-03-25T00:40:58;4.47;;;1.70;;
16512;SDS011;8369;48.030;11.598;2024-03-25T00:43:24;2.20;;;1.40;;
16512;SDS011;8369;48.030;11.598;2024-03-25T00:45:49;2.57;;;1.50;;
16512;SDS011;8369;48.030;11.598;2024-03-25T00:48:15;3.60;;;1.40;;
16512;SDS011;8369;48.030;11.598;2024-03-25T00:50:40;3.03;;;1.40;;
16512;SDS011;8369;48.030;11.598;2024-03-25T00:53:06;1.90;;;1.57;;
16512;SDS011;8369;48.030;11.598;2024-03-25T00:55:33;3.97;;;1.70;;
16512;SDS011;8369;48.030;11.598;2024-03-25T00:57:59;2.93;;;1.57;;
16512;SDS011;8369;48.030;11.598;2024-03-25T01:00:25;2.87;;;1.53;;
16512;SDS011;8369;48.030;11.598;2024-03-25T01:02:51;4.57;;;1.87;;
16512;SDS011;8369;48.030;11.598;2024-03-25T01:05:16;2.23;;;1.50;;
16512;SDS011;8369;48.030;11.598;2024-03-25T01:07:43;1.83;;;1.40;;
16512;SDS011;8369;48.030;11.598;2024-03-25T01:10:09;2.60;;;1.60;;
16512;SDS011;8369;48.030;11.598;2024-03-25T01:12:34;2.27;;;1.47;;
16512;SDS011;8369;48.030;11.598;2024-03-25T01:15:00;2.77;;;1.73;;
16512;SDS011;8369;48.030;11.598;2024-03-25T01:17:29;2.20;;;1.53;;
16512;SDS011;8369;48.030;11.598;2024-03-25T01:19:55;4.13;;;1.63;;
16512;SDS011;8369;48.030;11.598;2024-03-25T01:22:20;1.93;;;1.53;;
16512;SDS011;8369;48.030;11.598;2024-03-25T01:24:46;2.50;;;1.60;;
16512;SDS011;8369;48.030;11.598;2024-03-25T01:27:11;4.40;;;1.40;;
16512;SDS011;8369;48.030;11.598;2024-03-25T01:29:37;2.90;;;1.70;;
16512;SDS011;8369;48.030;11.598;2024-03-25T01:32:03;3.57;;;1.50;;
16512;SDS011;8369;48.030;11.598;2024-03-25T01:34:30;2.03;;;1.47;;
16512;SDS011;8369;48.030;11.598;2024-03-25T01:36:56;1.67;;;1.40;;
16512;SDS011;8369;48.030;11.598;2024-03-25T01:39:22;2.13;;;1.50;;
16512;SDS011;8369;48.030;11.598;2024-03-25T01:41:49;1.30;;;1.20;;
16512;SDS011;8369;48.030;11.598;2024-03-25T01:44:15;2.10;;;1.40;;
16512;SDS011;8369;48.030;11.598;2024-03-25T01:46:41;1.33;;;1.23;;
16512;SDS011;8369;48.030;11.598;2024-03-25T01:49:08;2.90;;;1.67;;
16512;SDS011;8369;48.030;11.598;2024-03-25T01:51:34;1.80;;;1.33;;
16512;SDS011;8369;48.030;11.598;2024-03-25T01:54:01;3.33;;;1.00;;
16512;SDS011;8369;48.030;11.598;2024-03-25T01:56:29;2.10;;;1.30;;
16512;SDS011;8369;48.030;11.598;2024-03-25T01:58:57;2.53;;;1.43;;
16512;SDS011;8369;48.030;11.598;2024-03-25T02:01:23;2.50;;;1.43;;
16512;SDS011;8369;48.030;11.598;2024-03-25T02:03:49;1.90;;;1.10;;
16512;SDS011;8369;48.030;11.598;2024-03-25T02:06:16;3.13;;;1.47;;
16512;SDS011;8369;48.030;11.598;2024-03-25T02:08:43;2.43;;;1.27;;
16512;SDS011;8369;48.030;11.598;2024-03-25T02:11:10;1.27;;;1.13;;
16512;SDS011;8369;48.030;11.598;2024-03-25T02:13:38;1.20;;;1.10;;
16512;SDS011;8369;48.030;11.598;2024-03-25T02:16:04;1.33;;;1.17;;
16512;SDS011;8369;48.030;11.598;2024-03-25T02:18:31;1.03;;;1.00;;
16512;SDS011;8369;48.030;11.598;2024-03-25T02:20:57;1.33;;;1.20;;
16512;SDS011;8369;48.030;11.598;2024-03-25T02:23:23;1.30;;;1.20;;
16512;SDS011;8369;48.030;11.598;2024-03-25T02:25:50;1.33;;;1.23;;
16512;SDS011;8369;48.030;11.598;2024-03-25T02:28:16;2.73;;;1.90;;
16512;SDS011;8369;48.030;11.598;2024-03-25T02:30:42;5.63;;;3.00;;
16512;SDS011;8369;48.030;11.598;2024-03-25T02:33:08;5.10;;;2.37;;
16512;SDS011;8369;48.030;11.598;2024-03-25T02:35:33;2.77;;;1.90;;
16512;SDS011;8369;48.030;11.598;2024-03-25T02:38:00;2.50;;;1.30;;
16512;SDS011;8369;48.030;11.598;2024-03-25T02:40:28;2.90;;;1.50;;
16512;SDS011;8369;48.030;11.598;2024-03-25T02:42:55;1.70;;;1.50;;
16512;SDS011;8369;48.030;11.598;2024-03-25T02:45:20;2.60;;;1.37;;
16512;SDS011;8369;48.030;11.598;2024-03-25T02:47:46;2.83;;;1.50;;
16512;SDS011;8369;48.030;11.598;2024-03-25T02:50:12;1.83;;;1.50;;
16512;SDS011;8369;48.030;11.598;2024-03-25T02:52:38;2.63;;;1.43;;
16512;SDS011;8369;48.030;11.598;2024-03-25T02:55:04;2.57;;;1.43;;
16512;SDS011;8369;48.030;11.598;2024-03-25T02:57:30;4.50;;;1.60;;
16512;SDS011;8369;48.030;11.598;2024-03-25T02:59:55;3.40;;;1.40;;
16512;SDS011;8369;48.030;11.598;2024-03-25T03:02:21;3.17;;;1.53;;
16512;SDS011;8369;48.030;11.598;2024-03-25T03:04:47;2.03;;;1.50;;
16512;SDS011;8369;48.030;11.598;2024-03-25T03:07:12;3.73;;;1.30;;
16512;SDS011;8369;48.030;11.598;2024-03-25T03:09:38;1.60;;;1.50;;
16512;SDS011;8369;48.030;11.598;2024-03-25T03:12:04;1.70;;;1.50;;
16512;SDS011;8369;48.030;11.598;2024-03-25T03:14:30;2.53;;;1.53;;
16512;SDS011;8369;48.030;11.598;2024-03-25T03:16:56;2.03;;;1.60;;
16512;SDS011;8369;48.030;11.598;2024-03-25T03:19:26;2.40;;;1.77;;
16512;SDS011;8369;48.030;11.598;2024-03-25T03:21:52;1.67;;;1.57;;
16512;SDS011;8369;48.030;11.598;2024-03-25T03:24:18;3.30;;;1.77;;
16512;SDS011;8369;48.030;11.598;2024-03-25T03:26:50;3.80;;;1.80;;
16512;SDS011;8369;48.030;11.598;2024-03-25T03:29:16;2.53;;;1.70;;
16512;SDS011;8369;48.030;11.598;2024-03-25T03:31:43;2.57;;;1.50;;
16512;SDS011;8369;48.030;11.598;2024-03-25T03:34:09;2.43;;;1.60;;
16512;SDS011;8369;48.030;11.598;2024-03-25T03:36:35;2.80;;;1.70;;
16512;SDS011;8369;48.030;11.598;2024-03-25T03:39:00;2.63;;;1.50;;
16512;SDS011;8369;48.030;11.598;2024-03-25T03:41:26;1.60;;;1.50;;
16512;SDS011;8369;48.030;11.598;2024-03-25T03:43:51;2.23;;;1.80;;
16512;SDS011;8369;48.030;11.598;2024-03-25T03:46:17;3.37;;;1.87;;
16512;SDS011;8369;48.030;11.598;2024-03-25T03:48:43;2.50;;;1.70;;
16512;SDS011;8369;48.030;11.598;2024-03-25T03:51:09;3.17;;;1.70;;
16512;SDS011;8369;48.030;11.598;2024-03-25T03:53:35;3.17;;;1.73;;
16512;SDS011;8369;48.030;11.598;2024-03-25T03:56:01;3.00;;;1.83;;
16512;SDS011;8369;48.030;11.598;2024-03-25T03:58:29;4.13;;;1.60;;
16512;SDS011;8369;48.030;11.598;2024-03-25T04:00:55;3.97;;;1.50;;
16512;SDS011;8369;48.030;11.598;2024-03-25T04:03:20;3.17;;;1.80;;
16512;SDS011;8369;48.030;11.598;2024-03-25T04:05:46;2.13;;;1.80;;
16512;SDS011;8369;48.030;11.598;2024-03-25T04:08:12;1.67;;;1.50;;
16512;SDS011;8369;48.030;11.598;2024-03-25T04:10:38;3.13;;;1.67;;
16512;SDS011;8369;48.030;11.598;2024-03-25T04:13:05;2.63;;;1.70;;
16512;SDS011;8369;48.030;11.598;2024-03-25T04:15:33;2.73;;;1.87;;
16512;SDS011;8369;48.030;11.598;2024-03-25T04:17:59;3.43;;;1.60;;
16512;SDS011;8369;48.030;11.598;2024-03-25T04:20:26;1.97;;;1.70;;
16512;SDS011;8369;48.030;11.598;2024-03-25T04:22:56;2.73;;;1.70;;
16512;SDS011;8369;48.030;11.598;2024-03-25T04:25:22;2.07;;;1.70;;
16512;SDS011;8369;48.030;11.598;2024-03-25T04:27:48;2.30;;;1.60;;
16512;SDS011;8369;48.030;11.598;2024-03-25T04:30:13;2.23;;;1.60;;
16512;SDS011;8369;48.030;11.598;2024-03-25T04:32:39;4.17;;;2.00;;
16512;SDS011;8369;48.030;11.598;2024-03-25T04:35:05;2.50;;;1.50;;
16512;SDS011;8369;48.030;11.598;2024-03-25T04:37:32;2.57;;;1.40;;
16512;SDS011;8369;48.030;11.598;2024-03-25T04:39:59;5.27;;;1.80;;
16512;SDS011;8369;48.030;11.598;2024-03-25T04:42:24;3.67;;;1.63;;
16512;SDS011;8369;48.030;11.598;2024-03-25T04:44:50;5.30;;;1.90;;
16512;SDS011;8369;48.030;11.598;2024-03-25T04:47:16;2.40;;;1.80;;
16512;SDS011;8369;48.030;11.598;2024-03-25T04:49:43;2.63;;;1.60;;
16512;SDS011;8369;48.030;11.598;2024-03-25T04:52:09;5.07;;;1.47;;
16512;SDS011;8369;48.030;11.598;2024-03-25T04:54:36;1.77;;;1.50;;
16512;SDS011;8369;48.030;11.598;2024-03-25T04:57:01;2.40;;;1.70;;
16512;SDS011;8369;48.030;11.598;2024-03-25T04:59:27;1.67;;;1.50;;
16512;SDS011;8369;48.030;11.598;2024-03-25T05:01:53;2.17;;;1.70;;
16512;SDS011;8369;48.030;11.598;2024-03-25T05:04:19;2.70;;;1.70;;
16512;SDS011;8369;48.030;11.598;2024-03-25T05:06:45;3.30;;;1.97;;
16512;SDS011;8369;48.030;11.598;2024-03-25T05:09:11;2.67;;;1.57;;
16512;SDS011;8369;48.030;11.598;2024-03-25T05:11:36;3.07;;;1.60;;
16512;SDS011;8369;48.030;11.598;2024-03-25T05:14:02;2.77;;;1.60;;
16512;SDS011;8369;48.030;11.598;2024-03-25T05:16:28;2.80;;;1.60;;
16512;SDS011;8369;48.030;11.598;2024-03-25T05:18:53;3.23;;;1.73;;
16512;SDS011;8369;48.030;11.598;2024-03-25T05:21:19;5.23;;;2.47;;
16512;SDS011;8369;48.030;11.598;2024-03-25T05:23:45;3.20;;;1.73;;
16512;SDS011;8369;48.030;11.598;2024-03-25T05:26:10;2.30;;;1.53;;
16512;SDS011;8369;48.030;11.598;2024-03-25T05:28:36;2.30;;;1.70;;
16512;SDS011;8369;48.030;11.598;2024-03-25T05:31:08;2.70;;;2.00;;
16512;SDS011;8369;48.030;11.598;2024-03-25T05:33:34;1.90;;;1.60;;
16512;SDS011;8369;48.030;11.598;2024-03-25T05:36:01;2.73;;;1.80;;
16512;SDS011;8369;48.030;11.598;2024-03-25T05:38:27;4.93;;;1.90;;
16512;SDS011;8369;48.030;11.598;2024-03-25T05:40:53;3.40;;;1.90;;
16512;SDS011;8369;48.030;11.598;2024-03-25T05:43:19;2.83;;;1.63;;
16512;SDS011;8369;48.030;11.598;2024-03-25T05:45:54;3.00;;;1.80;;
16512;SDS011;8369;48.030;11.598;2024-03-25T05:48:20;3.57;;;1.90;;
16512;SDS011;8369;48.030;11.598;2024-03-25T05:50:57;2.37;;;1.87;;
16512;SDS011;8369;48.030;11.598;2024-03-25T05:53:22;2.63;;;1.40;;
16512;SDS011;8369;48.030;11.598;2024-03-25T05:55:49;4.50;;;2.13;;
16512;SDS011;8369;48.030;11.598;2024-03-25T05:58:14;3.10;;;1.70;;
16512;SDS011;8369;48.030;11.598;2024-03-25T06:00:40;3.83;;;1.67;;
16512;SDS011;8369;48.030;11.598;2024-03-25T06:03:06;4.17;;;1.80;;
16512;SDS011;8369;48.030;11.598;2024-03-25T06:05:32;2.90;;;1.80;;
16512;SDS011;8369;48.030;11.598;2024-03-25T06:07:58;2.87;;;1.97;;
16512;SDS011;8369;48.030;11.598;2024-03-25T06:10:23;4.13;;;2.07;;
16512;SDS011;8369;48.030;11.598;2024-03-25T06:12:49;2.93;;;2.10;;
16512;SDS011;8369;48.030;11.598;2024-03-25T06:15:15;5.63;;;2.00;;
16512;SDS011;8369;48.030;11.598;2024-03-25T06:17:40;2.80;;;1.90;;
16512;SDS011;8369;48.030;11.598;2024-03-25T06:20:06;3.77;;;1.83;;
16512;SDS011;8369;48.030;11.598;2024-03-25T06:22:33;2.27;;;2.03;;
16512;SDS011;8369;48.030;11.598;2024-03-25T06:24:59;2.70;;;1.97;;
16512;SDS011;8369;48.030;11.598;2024-03-25T06:27:24;2.83;;;1.77;;
16512;SDS011;8369;48.030;11.598;2024-03-25T06:29:50;5.40;;;1.97;;
16512;SDS011;8369;48.030;11.598;2024-03-25T06:32:36;1.97;;;1.63;;
16512;SDS011;8369;48.030;11.598;2024-03-25T06:35:24;4.13;;;2.00;;
16512;SDS011;8369;48.030;11.598;2024-03-25T06:37:50;3.00;;;1.67;;
16512;SDS011;8369;48.030;11.598;2024-03-25T06:40:16;5.33;;;2.03;;
16512;SDS011;8369;48.030;11.598;2024-03-25T06:42:41;4.33;;;1.87;;
16512;SDS011;8369;48.030;11.598;2024-03-25T06:45:07;3.77;;;2.03;;
16512;SDS011;8369;48.030;11.598;2024-03-25T06:47:33;2.87;;;1.60;;
16512;SDS011;8369;48.030;11.598;2024-03-25T06:49:59;5.67;;;2.33;;
16512;SDS011;8369;48.030;11.598;2024-03-25T06:52:24;1.97;;;1.63;;
16512;SDS011;8369;48.030;11.598;2024-03-25T06:54:50;4.47;;;2.20;;
16512;SDS011;8369;48.030;11.598;2024-03-25T06:57:16;3.63;;;1.97;;
16512;SDS011;8369;48.030;11.598;2024-03-25T06:59:41;4.70;;;1.87;;
16512;SDS011;8369;48.030;11.598;2024-03-25T07:02:07;4.97;;;1.90;;
16512;SDS011;8369;48.030;11.598;2024-03-25T07:04:32;2.50;;;1.63;;
16512;SDS011;8369;48.030;11.598;2024-03-25T07:06:58;2.60;;;1.90;;
16512;SDS011;8369;48.030;11.598;2024-03-25T07:09:24;2.10;;;1.67;;
16512;SDS011;8369;48.030;11.598;2024-03-25T07:11:50;2.33;;;2.07;;
16512;SDS011;8369;48.030;11.598;2024-03-25T07:14:16;3.40;;;1.77;;
16512;SDS011;8369;48.030;11.598;2024-03-25T07:16:44;4.20;;;1.70;;
16512;SDS011;8369;48.030;11.598;2024-03-25T07:19:12;2.83;;;1.70;;
16512;SDS011;8369;48.030;11.598;2024-03-25T07:21:37;3.07;;;1.70;;
16512;SDS011;8369;48.030;11.598;2024-03-25T07:24:03;2.43;;;1.60;;
16512;SDS011;8369;48.030;11.598;2024-03-25T07:26:29;2.77;;;1.60;;
16512;SDS011;8369;48.030;11.598;2024-03-25T07:28:55;2.53;;;1.80;;
16512;SDS011;8369;48.030;11.598;2024-03-25T07:31:20;2.60;;;1.70;;
16512;SDS011;8369;48.030;11.598;2024-03-25T07:33:46;3.93;;;2.07;;
16512;SDS011;8369;48.030;11.598;2024-03-25T07:36:12;2.53;;;1.63;;
16512;SDS011;8369;48.030;11.598;2024-03-25T07:38:37;3.93;;;1.73;;
16512;SDS011;8369;48.030;11.598;2024-03-25T07:41:06;2.33;;;1.80;;
16512;SDS011;8369;48.030;11.598;2024-03-25T07:43:32;2.37;;;1.60;;
16512;SDS011;8369;48.030;11.598;2024-03-25T07:45:57;3.30;;;1.63;;
16512;SDS011;8369;48.030;11.598;2024-03-25T07:48:23;8.10;;;1.90;;
16512;SDS011;8369;48.030;11.598;2024-03-25T07:50:48;2.40;;;1.67;;
16512;SDS011;8369;48.030;11.598;2024-03-25T07:53:14;4.13;;;2.03;;
16512;SDS011;8369;48.030;11.598;2024-03-25T07:55:40;4.33;;;1.87;;
16512;SDS011;8369;48.030;11.598;2024-03-25T07:58:05;1.77;;;1.67;;
16512;SDS011;8369;48.030;11.598;2024-03-25T08:00:31;3.93;;;1.70;;
16512;SDS011;8369;48.030;11.598;2024-03-25T08:02:57;1.97;;;1.73;;
16512;SDS011;8369;48.030;11.598;2024-03-25T08:05:22;2.40;;;1.80;;
16512;SDS011;8369;48.030;11.598;2024-03-25T08:07:48;3.67;;;1.77;;
16512;SDS011;8369;48.030;11.598;2024-03-25T08:10:13;3.63;;;2.20;;
16512;SDS011;8369;48.030;11.598;2024-03-25T08:12:39;2.27;;;1.50;;
16512;SDS011;8369;48.030;11.598;2024-03-25T08:15:05;4.17;;;1.77;;
16512;SDS011;8369;48.030;11.598;2024-03-25T08:17:31;2.43;;;1.80;;
16512;SDS011;8369;48.030;11.598;2024-03-25T08:19:57;2.17;;;1.50;;
16512;SDS011;8369;48.030;11.598;2024-03-25T08:22:23;3.77;;;1.77;;
16512;SDS011;8369;48.030;11.598;2024-03-25T08:24:48;2.20;;;1.70;;
16512;SDS011;8369;48.030;11.598;2024-03-25T08:27:14;2.87;;;1.60;;
16512;SDS011;8369;48.030;11.598;2024-03-25T08:29:40;1.93;;;1.60;;
16512;SDS011;8369;48.030;11.598;2024-03-25T08:32:06;3.03;;;1.90;;
16512;SDS011;8369;48.030;11.598;2024-03-25T08:34:31;4.17;;;2.10;;
16512;SDS011;8369;48.030;11.598;2024-03-25T08:36:57;3.57;;;1.70;;
16512;SDS011;8369;48.030;11.598;2024-03-25T08:39:24;1.97;;;1.57;;
16512;SDS011;8369;48.030;11.598;2024-03-25T08:41:50;4.47;;;1.83;;
16512;SDS011;8369;48.030;11.598;2024-03-25T08:44:16;2.40;;;1.90;;
16512;SDS011;8369;48.030;11.598;2024-03-25T08:46:44;3.40;;;2.07;;
16512;SDS011;8369;48.030;11.598;2024-03-25T08:49:10;3.07;;;1.77;;
16512;SDS011;8369;48.030;11.598;2024-03-25T08:51:36;4.10;;;2.00;;
16512;SDS011;8369;48.030;11.598;2024-03-25T08:54:01;3.87;;;2.30;;
16512;SDS011;8369;48.030;11.598;2024-03-25T08:56:28;2.83;;;1.50;;
16512;SDS011;8369;48.030;11.598;2024-03-25T08:58:53;4.03;;;1.70;;
16512;SDS011;8369;48.030;11.598;2024-03-25T09:01:21;5.83;;;2.10;;
16512;SDS011;8369;48.030;11.598;2024-03-25T09:03:49;2.67;;;2.17;;
16512;SDS011;8369;48.030;11.598;2024-03-25T09:06:15;5.03;;;2.70;;
16512;SDS011;8369;48.030;11.598;2024-03-25T09:08:41;2.13;;;1.53;;
16512;SDS011;8369;48.030;11.598;2024-03-25T09:11:25;3.43;;;1.70;;
16512;SDS011;8369;48.030;11.598;2024-03-25T09:13:52;5.37;;;1.47;;
16512;SDS011;8369;48.030;11.598;2024-03-25T09:16:18;2.50;;;1.50;;
16512;SDS011;8369;48.030;11.598;2024-03-25T09:18:44;3.93;;;1.40;;
16512;SDS011;8369;48.030;11.598;2024-03-25T09:21:10;4.60;;;1.70;;
16512;SDS011;8369;48.030;11.598;2024-03-25T09:23:36;2.43;;;1.40;;
16512;SDS011;8369;48.030;11.598;2024-03-25T09:26:02;2.80;;;1.33;;
16512;SDS011;8369;48.030;11.598;2024-03-25T09:28:28;3.50;;;1.73;;
16512;SDS011;8369;48.030;11.598;2024-03-25T09:30:54;2.03;;;1.30;;
16512;SDS011;8369;48.030;11.598;2024-03-25T09:33:20;1.93;;;1.47;;
16512;SDS011;8369;48.030;11.598;2024-03-25T09:35:45;3.93;;;1.70;;
16512;SDS011;8369;48.030;11.598;2024-03-25T09:38:12;2.67;;;1.47;;
16512;SDS011;8369;48.030;11.598;2024-03-25T09:40:41;2.33;;;1.30;;
16512;SDS011;8369;48.030;11.598;2024-03-25T09:43:16;1.90;;;1.40;;
16512;SDS011;8369;48.030;11.598;2024-03-25T09:45:48;1.93;;;1.40;;
16512;SDS011;8369;48.030;11.598;2024-03-25T09:48:17;3.00;;;1.53;;
16512;SDS011;8369;48.030;11.598;2024-03-25T09:50:45;2.73;;;1.27;;
16512;SDS011;8369;48.030;11.598;2024-03-25T09:53:11;1.30;;;1.20;;
16512;SDS011;8369;48.030;11.598;2024-03-25T09:55:37;2.77;;;1.80;;
16512;SDS011;8369;48.030;11.598;2024-03-25T09:58:03;2.57;;;1.50;;
16512;SDS011;8369;48.030;11.598;2024-03-25T10:00:30;1.43;;;1.30;;
16512;SDS011;8369;48.030;11.598;2024-03-25T10:02:56;1.73;;;1.43;;
16512;SDS011;8369;48.030;11.598;2024-03-25T10:05:21;1.97;;;1.30;;
16512;SDS011;8369;48.030;11.598;2024-03-25T10:07:47;3.47;;;1.37;;
16512;SDS011;8369;48.030;11.598;2024-03-25T10:10:13;1.67;;;1.27;;
16512;SDS011;8369;48.030;11.598;2024-03-25T10:12:44;2.50;;;1.40;;
16512;SDS011;8369;48.030;11.598;2024-03-25T10:15:14;1.97;;;1.57;;
16512;SDS011;8369;48.030;11.598;2024-03-25T10:17:41;4.37;;;1.50;;
16512;SDS011;8369;48.030;11.598;2024-03-25T10:20:12;2.40;;;1.40;;
16512;SDS011;8369;48.030;11.598;2024-03-25T10:22:42;3.03;;;1.60;;
16512;SDS011;8369;48.030;11.598;2024-03-25T10:28:39;2.33;;;1.40;;
16512;SDS011;8369;48.030;11.598;2024-03-25T10:31:05;1.60;;;1.23;;
16512;SDS011;8369;48.030;11.598;2024-03-25T10:33:30;2.83;;;1.50;;
16512;SDS011;8369;48.030;11.598;2024-03-25T10:35:57;1.97;;;1.27;;
16512;SDS011;8369;48.030;11.598;2024-03-25T10:38:27;3.10;;;1.80;;
16512;SDS011;8369;48.030;11.598;2024-03-25T10:40:55;1.67;;;1.20;;
16512;SDS011;8369;48.030;11.598;2024-03-25T10:43:22;2.07;;;1.17;;
16512;SDS011;8369;48.030;11.598;2024-03-25T10:45:54;2.63;;;1.37;;
16512;SDS011;8369;48.030;11.598;2024-03-25T10:48:31;1.30;;;1.20;;
16512;SDS011;8369;48.030;11.598;2024-03-25T10:50:59;1.83;;;1.30;;
16512;SDS011;8369;48.030;11.598;2024-03-25T10:53:27;2.83;;;1.30;;
16512;SDS011;8369;48.030;11.598;2024-03-25T10:55:55;2.00;;;1.10;;
16512;SDS011;8369;48.030;11.598;2024-03-25T10:58:22;1.30;;;1.20;;
16512;SDS011;8369;48.030;11.598;2024-03-25T11:00:48;4.43;;;1.27;;
16512;SDS011;8369;48.030;11.598;2024-03-25T11:03:16;1.10;;;1.00;;
16512;SDS011;8369;48.030;11.598;2024-03-25T11:05:43;3.40;;;1.20;;
16512;SDS011;8369;48.030;11.598;2024-03-25T11:08:13;3.40;;;1.43;;
16512;SDS011;8369;48.030;11.598;2024-03-25T11:10:47;2.00;;;1.20;;
16512;SDS011;8369;48.030;11.598;2024-03-25T11:13:13;2.10;;;1.20;;
16512;SDS011;8369;48.030;11.598;2024-03-25T11:15:42;3.23;;;1.40;;
16512;SDS011;8369;48.030;11.598;2024-03-25T11:20:42;2.20;;;1.20;;
16512;SDS011;8369;48.030;11.598;2024-03-25T11:23:09;5.00;;;1.40;;
16512;SDS011;8369;48.030;11.598;2024-03-25T11:25:37;2.03;;;1.33;;
16512;SDS011;8369;48.030;11.598;2024-03-25T11:28:04;2.10;;;1.30;;
16512;SDS011;8369;48.030;11.598;2024-03-25T11:30:31;1.23;;;1.10;;
16512;SDS011;8369;48.030;11.598;2024-03-25T11:33:01;2.40;;;1.70;;
16512;SDS011;8369;48.030;11.598;2024-03-25T11:35:27;1.30;;;1.20;;
16512;SDS011;8369;48.030;11.598;2024-03-25T11:37:53;3.13;;;1.30;;
16512;SDS011;8369;48.030;11.598;2024-03-25T11:40:19;2.70;;;1.40;;
16512;SDS011;8369;48.030;11.598;2024-03-25T11:42:45;2.87;;;1.40;;
16512;SDS011;8369;48.030;11.598;2024-03-25T11:47:45;1.77;;;1.33;;
16512;SDS011;8369;48.030;11.598;2024-03-25T11:50:12;1.30;;;1.13;;
16512;SDS011;8369;48.030;11.598;2024-03-25T11:52:39;2.50;;;1.10;;
16512;SDS011;8369;48.030;11.598;2024-03-25T11:55:05;1.57;;;1.27;;
16512;SDS011;8369;48.030;11.598;2024-03-25T11:57:34;2.57;;;1.10;;
16512;SDS011;8369;48.030;11.598;2024-03-25T12:00:01;2.07;;;1.10;;
16512;SDS011;8369;48.030;11.598;2024-03-25T12:02:32;2.57;;;1.17;;
16512;SDS011;8369;48.030;11.598;2024-03-25T12:04:58;2.10;;;1.30;;
16512;SDS011;8369;48.030;11.598;2024-03-25T12:07:24;1.20;;;0.93;;
16512;SDS011;8369;48.030;11.598;2024-03-25T12:09:50;1.97;;;1.20;;
16512;SDS011;8369;48.030;11.598;2024-03-25T12:12:34;1.23;;;1.03;;
16512;SDS011;8369;48.030;11.598;2024-03-25T12:15:00;1.63;;;1.10;;
16512;SDS011;8369;48.030;11.598;2024-03-25T12:17:29;1.70;;;1.30;;
16512;SDS011;8369;48.030;11.598;2024-03-25T12:19:59;1.80;;;1.17;;
16512;SDS011;8369;48.030;11.598;2024-03-25T12:22:31;1.47;;;1.10;;
16512;SDS011;8369;48.030;11.598;2024-03-25T12:25:01;1.13;;;1.07;;
16512;SDS011;8369;48.030;11.598;2024-03-25T12:27:34;2.00;;;1.00;;
16512;SDS011;8369;48.030;11.598;2024-03-25T12:30:03;1.07;;;0.97;;
16512;SDS011;8369;48.030;11.598;2024-03-25T12:32:35;1.53;;;1.20;;
16512;SDS011;8369;48.030;11.598;2024-03-25T12:35:06;1.10;;;1.00;;
16512;SDS011;8369;48.030;11.598;2024-03-25T12:37:42;1.07;;;0.90;;
16512;SDS011;8369;48.030;11.598;2024-03-25T12:40:10;2.17;;;1.20;;
16512;SDS011;8369;48.030;11.598;2024-03-25T12:42:37;0.90;;;0.90;;
16512;SDS011;8369;48.030;11.598;2024-03-25T12:45:05;1.10;;;1.00;;
16512;SDS011;8369;48.030;11.598;2024-03-25T12:47:31;1.00;;;1.00;;
16512;SDS011;8369;48.030;11.598;2024-03-25T12:49:58;0.90;;;0.90;;
16512;SDS011;8369;48.030;11.598;2024-03-25T12:52:24;1.07;;;0.90;;
16512;SDS011;8369;48.030;11.598;2024-03-25T12:54:51;2.20;;;0.90;;
16512;SDS011;8369;48.030;11.598;2024-03-25T12:57:17;1.00;;;1.00;;
16512;SDS011;8369;48.030;11.598;2024-03-25T12:59:44;1.80;;;0.90;;
16512;SDS011;8369;48.030;11.598;2024-03-25T13:02:11;2.43;;;1.13;;
16512;SDS011;8369;48.030;11.598;2024-03-25T13:04:38;1.23;;;1.00;;
16512;SDS011;8369;48.030;11.598;2024-03-25T13:07:08;1.03;;;0.93;;
16512;SDS011;8369;48.030;11.598;2024-03-25T13:09:36;1.13;;;1.00;;
16512;SDS011;8369;48.030;11.598;2024-03-25T13:12:03;1.67;;;1.20;;
16512;SDS011;8369;48.030;11.598;2024-03-25T13:14:29;1.20;;;1.10;;
16512;SDS011;8369;48.030;11.598;2024-03-25T13:16:55;1.10;;;0.90;;
16512;SDS011;8369;48.030;11.598;2024-03-25T13:19:21;1.77;;;1.10;;
16512;SDS011;8369;48.030;11.598;2024-03-25T13:21:47;0.97;;;0.97;;
16512;SDS011;8369;48.030;11.598;2024-03-25T13:24:14;1.33;;;1.20;;
16512;SDS011;8369;48.030;11.598;2024-03-25T13:26:39;1.10;;;1.00;;
16512;SDS011;8369;48.030;11.598;2024-03-25T13:29:05;1.50;;;1.20;;
16512;SDS011;8369;48.030;11.598;2024-03-25T13:31:33;1.57;;;1.30;;
16512;SDS011;8369;48.030;11.598;2024-03-25T13:33:59;2.63;;;1.30;;
16512;SDS011;8369;48.030;11.598;2024-03-25T13:36:25;1.50;;;1.20;;
16512;SDS011;8369;48.030;11.598;2024-03-25T13:38:51;1.70;;;1.10;;
16512;SDS011;8369;48.030;11.598;2024-03-25T13:41:17;1.30;;;1.20;;
16512;SDS011;8369;48.030;11.598;2024-03-25T13:43:48;1.20;;;1.10;;
16512;SDS011;8369;48.030;11.598;2024-03-25T13:46:13;1.03;;;1.03;;
16512;SDS011;8369;48.030;11.598;2024-03-25T13:48:39;2.00;;;1.17;;
16512;SDS011;8369;48.030;11.598;2024-03-25T13:51:06;1.30;;;1.20;;
16512;SDS011;8369;48.030;11.598;2024-03-25T13:53:32;1.60;;;1.20;;
16512;SDS011;8369;48.030;11.598;2024-03-25T13:55:58;1.20;;;1.00;;
16512;SDS011;8369;48.030;11.598;2024-03-25T13:58:26;1.53;;;1.33;;
16512;SDS011;8369;48.030;11.598;2024-03-25T14:00:52;1.13;;;1.10;;
16512;SDS011;8369;48.030;11.598;2024-03-25T14:03:17;1.00;;;1.00;;
16512;SDS011;8369;48.030;11.598;2024-03-25T14:05:43;1.00;;;0.90;;
16512;SDS011;8369;48.030;11.598;2024-03-25T14:08:09;2.20;;;1.27;;
16512;SDS011;8369;48.030;11.598;2024-03-25T14:10:36;1.00;;;0.90;;
16512;SDS011;8369;48.030;11.598;2024-03-25T14:13:02;1.60;;;1.10;;
16512;SDS011;8369;48.030;11.598;2024-03-25T14:15:28;1.13;;;1.00;;
16512;SDS011;8369;48.030;11.598;2024-03-25T14:17:55;1.10;;;1.00;;
16512;SDS011;8369;48.030;11.598;2024-03-25T14:20:21;1.10;;;1.00;;
16512;SDS011;8369;48.030;11.598;2024-03-25T14:22:47;1.37;;;1.13;;
16512;SDS011;8369;48.030;11.598;2024-03-25T14:25:13;3.40;;;1.30;;
16512;SDS011;8369;48.030;11.598;2024-03-25T14:27:40;0.90;;;0.90;;
16512;SDS011;8369;48.030;11.598;2024-03-25T14:30:07;1.40;;;1.10;;
16512;SDS011;8369;48.030;11.598;2024-03-25T14:32:36;1.40;;;1.10;;
16512;SDS011;8369;48.030;11.598;2024-03-25T14:35:03;1.10;;;1.00;;
16512;SDS011;8369;48.030;11.598;2024-03-25T14:37:31;1.27;;;1.00;;
16512;SDS011;8369;48.030;11.598;2024-03-25T14:39:58;0.80;;;0.80;;
16512;SDS011;8369;48.030;11.598;2024-03-25T14:42:24;1.00;;;1.00;;
16512;SDS011;8369;48.030;11.598;2024-03-25T14:44:50;1.13;;;1.07;;
16512;SDS011;8369;48.030;11.598;2024-03-25T14:47:15;1.20;;;1.00;;
16512;SDS011;8369;48.030;11.598;2024-03-25T14:49:42;1.10;;;1.00;;
16512;SDS011;8369;48.030;11.598;2024-03-25T14:52:07;2.00;;;1.10;;
16512;SDS011;8369;48.030;11.598;2024-03-25T14:54:34;1.40;;;1.30;;